createdAt,value
2022-10-26T00:02:31.050Z,12.78
2022-10-26T00:06:03.613Z,12.80
2022-10-26T00:09:30.414Z,12.80
2022-10-26T00:12:57.877Z,12.83
2022-10-26T00:16:27.738Z,12.87
2022-10-26T00:19:55.297Z,12.86
2022-10-26T00:23:22.556Z,12.82
2022-10-26T00:26:51.013Z,12.81
2022-10-26T00:30:19.031Z,12.83
2022-10-26T00:33:46.648Z,12.84
2022-10-26T00:37:13.579Z,12.83
2022-10-26T00:40:40.769Z,12.85
2022-10-26T00:44:38.827Z,12.86
2022-10-26T00:48:09.284Z,12.88
2022-10-26T00:51:41.255Z,12.88
2022-10-26T00:55:10.249Z,12.91
2022-10-26T00:58:38.130Z,12.91
2022-10-26T01:02:05.404Z,12.88
2022-10-26T01:05:33.411Z,12.81
2022-10-26T01:09:02.406Z,12.73
2022-10-26T01:12:32.343Z,12.63
2022-10-26T01:16:08.770Z,12.54
2022-10-26T01:20:23.561Z,12.48
2022-10-26T01:24:09.362Z,12.43
2022-10-26T01:27:38.143Z,12.41
2022-10-26T01:31:08.737Z,12.41
2022-10-26T01:34:44.409Z,12.43
2022-10-26T01:38:18.609Z,12.43
2022-10-26T01:41:50.637Z,12.38
2022-10-26T01:45:18.699Z,12.33
2022-10-26T01:48:47.868Z,12.33
2022-10-26T01:52:17.230Z,12.34
2022-10-26T01:55:49.341Z,12.37
2022-10-26T01:59:32.595Z,12.41
2022-10-26T02:03:08.963Z,12.44
2022-10-26T02:06:44.987Z,12.42
2022-10-26T02:10:22.094Z,12.44
2022-10-26T02:13:54.825Z,12.44
2022-10-26T02:17:29.634Z,12.45
2022-10-26T02:21:01.099Z,12.44
2022-10-26T02:24:30.138Z,12.43
2022-10-26T02:28:01.748Z,12.45
2022-10-26T02:31:30.036Z,12.47
2022-10-26T02:35:01.401Z,12.49
2022-10-26T02:38:31.455Z,12.50
2022-10-26T02:41:59.903Z,12.44
2022-10-26T02:45:32.281Z,12.41
2022-10-26T02:49:00.581Z,12.40
2022-10-26T02:52:36.067Z,12.38
2022-10-26T02:56:18.588Z,12.35
2022-10-26T02:59:50.992Z,12.28
2022-10-26T03:03:20.273Z,12.20
2022-10-26T03:06:55.981Z,12.15
2022-10-26T03:10:23.538Z,12.13
2022-10-26T03:13:51.089Z,12.07
2022-10-26T03:17:18.419Z,12.06
2022-10-26T03:20:47.245Z,12.03
2022-10-26T03:24:14.206Z,12.04
2022-10-26T03:27:48.746Z,12.06
2022-10-26T03:31:16.575Z,12.11
2022-10-26T03:34:43.613Z,12.16
2022-10-26T03:38:15.257Z,12.19
2022-10-26T03:41:46.049Z,12.21
2022-10-26T03:45:14.362Z,12.23
2022-10-26T03:48:41.610Z,12.26
2022-10-26T03:52:08.377Z,12.28
2022-10-26T03:55:35.189Z,12.27
2022-10-26T03:59:02.217Z,12.25
2022-10-26T04:02:28.952Z,12.20
2022-10-26T04:06:10.093Z,12.18
2022-10-26T04:09:39.100Z,12.14
2022-10-26T04:13:05.585Z,12.12
2022-10-26T04:16:33.556Z,12.10
2022-10-26T04:20:00.158Z,12.11
2022-10-26T04:23:26.893Z,12.12
2022-10-26T04:26:54.208Z,12.13
2022-10-26T04:30:21.206Z,12.17
2022-10-26T04:33:50.433Z,12.17
2022-10-26T04:37:17.575Z,12.14
2022-10-26T04:40:44.499Z,12.09
2022-10-26T04:44:11.329Z,12.02
2022-10-26T04:47:38.318Z,11.99
2022-10-26T04:51:05.544Z,11.97
2022-10-26T04:54:38.692Z,11.95
2022-10-26T04:58:05.608Z,11.93
2022-10-26T05:01:32.235Z,11.92
2022-10-26T05:04:59.717Z,11.90
2022-10-26T05:08:27.121Z,11.85
2022-10-26T05:11:53.766Z,11.77
2022-10-26T05:15:21.083Z,11.69
2022-10-26T05:18:58.919Z,11.67
2022-10-26T05:22:26.147Z,11.66
2022-10-26T05:25:53.198Z,11.65
2022-10-26T05:29:19.807Z,11.67
2022-10-26T05:32:47.180Z,11.68
2022-10-26T05:36:14.606Z,11.70
2022-10-26T05:39:43.676Z,11.68
2022-10-26T05:43:10.888Z,11.68
2022-10-26T05:46:37.571Z,11.65
2022-10-26T05:50:05.255Z,11.64
2022-10-26T05:53:32.291Z,11.64
2022-10-26T05:57:00.386Z,11.65
2022-10-26T06:00:30.412Z,11.63
2022-10-26T06:04:17.069Z,11.63
2022-10-26T06:07:44.526Z,11.64
2022-10-26T06:11:12.589Z,11.58
2022-10-26T06:14:40.444Z,11.57
2022-10-26T06:18:18.081Z,11.61
2022-10-26T06:22:06.039Z,11.62
2022-10-26T06:25:45.802Z,11.61
2022-10-26T06:29:24.265Z,11.59
2022-10-26T06:33:01.301Z,11.60
2022-10-26T06:36:34.737Z,11.61
2022-10-26T06:40:02.320Z,11.65
2022-10-26T06:43:32.593Z,11.68
2022-10-26T06:47:06.513Z,11.69
2022-10-26T06:50:39.501Z,11.65
2022-10-26T06:54:14.969Z,11.58
2022-10-26T06:57:43.757Z,11.54
2022-10-26T07:01:14.126Z,11.57
2022-10-26T07:04:41.255Z,11.62
2022-10-26T07:08:08.858Z,11.63
2022-10-26T07:11:35.401Z,11.63
2022-10-26T07:15:02.389Z,11.66
2022-10-26T07:18:30.174Z,11.74
2022-10-26T07:21:59.540Z,11.77
2022-10-26T07:25:28.851Z,11.79
2022-10-26T07:28:55.892Z,11.83
2022-10-26T07:32:22.948Z,11.77
2022-10-26T07:35:49.709Z,11.70
2022-10-26T07:39:16.952Z,11.71
2022-10-26T07:42:46.871Z,11.72
2022-10-26T07:46:14.961Z,11.70
2022-10-26T07:49:41.774Z,11.65
2022-10-26T07:53:08.993Z,11.61
2022-10-26T07:56:36.658Z,11.54
2022-10-26T08:00:03.261Z,11.51
2022-10-26T08:03:31.872Z,11.48
2022-10-26T08:06:58.421Z,11.49
2022-10-26T08:10:25.544Z,11.52
2022-10-26T08:13:55.196Z,11.49
2022-10-26T08:17:23.364Z,11.47
2022-10-26T08:20:50.235Z,11.48
2022-10-26T08:24:17.173Z,11.48
2022-10-26T08:27:43.691Z,11.48
2022-10-26T08:31:10.845Z,11.53
2022-10-26T08:34:37.725Z,11.56
2022-10-26T08:38:04.558Z,11.59
2022-10-26T08:41:38.401Z,11.58
2022-10-26T08:45:12.561Z,11.60
2022-10-26T08:48:42.200Z,11.63
2022-10-26T08:52:14.244Z,11.66
2022-10-26T08:55:48.704Z,11.72
2022-10-26T08:59:20.771Z,11.83
2022-10-26T09:02:50.841Z,11.92
2022-10-26T09:06:27.813Z,12.02
2022-10-26T09:10:03.455Z,12.10
2022-10-26T09:13:45.659Z,12.12
2022-10-26T09:17:25.480Z,12.18
2022-10-26T09:21:14.376Z,12.23
2022-10-26T09:24:44.878Z,12.27
2022-10-26T09:28:18.892Z,12.26
2022-10-26T09:31:49.847Z,12.25
2022-10-26T09:35:22.106Z,12.26
2022-10-26T09:38:52.926Z,12.30
2022-10-26T09:42:24.029Z,12.34
2022-10-26T09:45:54.090Z,12.35
2022-10-26T09:49:23.476Z,12.28
2022-10-26T09:52:50.935Z,12.24
2022-10-26T09:56:19.495Z,12.28
2022-10-26T09:59:50.138Z,12.32
2022-10-26T10:03:26.871Z,12.33
2022-10-26T10:07:12.697Z,12.34
2022-10-26T10:10:41.115Z,12.38
2022-10-26T10:14:11.472Z,12.45
2022-10-26T10:17:38.204Z,12.50
2022-10-26T10:21:07.875Z,12.53
2022-10-26T10:24:37.124Z,12.56
2022-10-26T10:28:04.305Z,12.56
2022-10-26T10:31:35.309Z,12.60
2022-10-26T10:35:02.624Z,12.62
2022-10-26T10:38:30.068Z,12.64
2022-10-26T10:41:58.699Z,12.67
2022-10-26T10:45:29.035Z,12.72
2022-10-26T10:49:07.280Z,12.76
2022-10-26T10:52:38.706Z,12.79
2022-10-26T10:56:26.556Z,12.83
2022-10-26T11:00:02.314Z,12.90
2022-10-26T11:03:46.258Z,12.94
2022-10-26T11:07:14.852Z,13.01
2022-10-26T11:10:45.917Z,13.03
2022-10-26T11:14:17.399Z,13.10
2022-10-26T11:17:57.567Z,13.12
2022-10-26T11:21:30.397Z,13.11
2022-10-26T11:25:03.442Z,13.12
2022-10-26T11:28:40.754Z,13.06
2022-10-26T11:32:15.357Z,13.03
2022-10-26T11:35:48.042Z,13.03
2022-10-26T11:39:23.717Z,13.00
2022-10-26T11:42:57.822Z,12.99
2022-10-26T11:46:29.923Z,12.99
2022-10-26T11:50:04.917Z,13.00
2022-10-26T11:53:37.547Z,13.05
2022-10-26T11:57:05.604Z,13.10
2022-10-26T12:00:34.481Z,13.13
2022-10-26T12:04:07.438Z,13.16
2022-10-26T12:07:37.292Z,13.21
2022-10-26T12:11:11.939Z,13.30
2022-10-26T12:14:45.221Z,13.39
2022-10-26T12:18:26.895Z,13.40
2022-10-26T12:21:59.181Z,13.49
2022-10-26T12:25:25.877Z,13.60
2022-10-26T12:29:12.440Z,13.67
2022-10-26T12:32:54.350Z,13.74
2022-10-26T12:36:52.410Z,13.82
2022-10-26T12:40:44.710Z,13.82
2022-10-26T12:44:45.842Z,13.76
2022-10-26T12:48:34.965Z,13.74
2022-10-26T12:52:05.395Z,13.74
2022-10-26T12:55:56.569Z,13.74
2022-10-26T12:59:31.854Z,13.81
2022-10-26T13:03:18.668Z,13.84
2022-10-26T13:07:02.155Z,13.88
2022-10-26T13:10:31.055Z,13.91
2022-10-26T13:14:04.533Z,13.92
2022-10-26T13:17:37.707Z,13.96
2022-10-26T13:21:13.561Z,14.00
2022-10-26T13:24:55.081Z,14.05
2022-10-26T13:29:01.555Z,14.14
2022-10-26T13:32:33.058Z,14.14
2022-10-26T13:36:06.058Z,14.16
2022-10-26T13:39:38.393Z,14.22
2022-10-26T13:43:08.840Z,14.23
2022-10-26T13:46:41.633Z,14.18
2022-10-26T13:50:15.765Z,14.14
2022-10-26T13:53:51.629Z,14.12
2022-10-26T13:57:24.630Z,14.12
2022-10-26T14:01:17.390Z,14.12
2022-10-26T14:04:47.381Z,14.15
2022-10-26T14:08:21.385Z,14.17
2022-10-26T14:11:50.172Z,14.16
2022-10-26T14:15:20.936Z,14.13
2022-10-26T14:18:48.687Z,14.16
2022-10-26T14:22:23.703Z,14.24
2022-10-26T14:25:58.882Z,14.28
2022-10-26T14:29:29.840Z,14.28
2022-10-26T14:33:02.975Z,14.36
2022-10-26T14:36:36.550Z,14.38
2022-10-26T14:40:05.224Z,14.35
2022-10-26T14:43:32.691Z,14.31
2022-10-26T14:46:59.795Z,14.27
2022-10-26T14:50:32.343Z,14.21
2022-10-26T14:54:04.300Z,14.17
2022-10-26T14:57:40.074Z,14.14
2022-10-26T15:01:36.305Z,14.12
2022-10-26T15:05:18.516Z,14.10
2022-10-26T15:08:56.980Z,14.11
2022-10-26T15:12:32.010Z,14.12
2022-10-26T15:16:11.507Z,14.14
2022-10-26T15:19:41.593Z,14.16
2022-10-26T15:23:16.895Z,14.16
2022-10-26T15:26:46.800Z,14.13
2022-10-26T15:30:23.384Z,14.08
2022-10-26T15:34:14.708Z,14.03
2022-10-26T15:37:41.769Z,13.95
2022-10-26T15:41:14.983Z,13.87
2022-10-26T15:44:42.984Z,13.76
2022-10-26T15:48:25.849Z,13.65
2022-10-26T15:51:52.772Z,13.55
2022-10-26T15:55:22.198Z,13.49
2022-10-26T15:58:50.628Z,13.46
2022-10-26T16:02:19.258Z,13.42
2022-10-26T16:05:47.610Z,13.37
2022-10-26T16:09:18.139Z,13.31
2022-10-26T16:12:44.998Z,13.23
2022-10-26T16:16:15.009Z,13.12
2022-10-26T16:19:42.876Z,13.02
2022-10-26T16:23:14.614Z,12.92
2022-10-26T16:26:42.938Z,12.80
2022-10-26T16:30:13.096Z,12.68
2022-10-26T16:33:47.029Z,12.57
2022-10-26T16:37:16.297Z,12.51
2022-10-26T16:40:45.412Z,12.44
2022-10-26T16:44:14.909Z,12.34
2022-10-26T16:47:43.093Z,12.24
2022-10-26T16:51:12.089Z,12.16
2022-10-26T16:54:39.145Z,12.09
2022-10-26T16:58:05.986Z,12.03
2022-10-26T17:01:33.950Z,11.98
2022-10-26T17:05:04.249Z,11.91
2022-10-26T17:08:36.776Z,11.86
2022-10-26T17:12:04.243Z,11.75
2022-10-26T17:15:31.672Z,11.65
2022-10-26T17:18:59.627Z,11.60
2022-10-26T17:22:27.687Z,11.52
2022-10-26T17:25:54.717Z,11.45
2022-10-26T17:29:24.494Z,11.34
2022-10-26T17:32:52.232Z,11.25
2022-10-26T17:36:26.009Z,11.16
2022-10-26T17:39:54.189Z,11.08
2022-10-26T17:43:22.622Z,11.04
2022-10-26T17:46:52.446Z,11.04
2022-10-26T17:50:19.867Z,11.03
2022-10-26T17:53:50.206Z,11.04
2022-10-26T17:57:18.324Z,11.03
2022-10-26T18:00:49.344Z,10.97
2022-10-26T18:04:17.270Z,10.92
2022-10-26T18:07:44.895Z,10.84
2022-10-26T18:11:16.481Z,10.78
2022-10-26T18:14:45.669Z,10.70
2022-10-26T18:18:13.357Z,10.61
2022-10-26T18:21:40.501Z,10.53
2022-10-26T18:25:14.887Z,10.47
2022-10-26T18:28:43.616Z,10.42
2022-10-26T18:32:14.167Z,10.37
2022-10-26T18:35:41.429Z,10.32
2022-10-26T18:39:08.829Z,10.30
2022-10-26T18:42:39.586Z,10.32
2022-10-26T18:46:11.039Z,10.35
2022-10-26T18:49:42.047Z,10.35
2022-10-26T18:53:13.040Z,10.36
2022-10-26T18:56:41.843Z,10.35
2022-10-26T19:00:11.003Z,10.40
2022-10-26T19:03:39.555Z,10.39
2022-10-26T19:07:06.907Z,10.38
2022-10-26T19:14:03.379Z,10.31
2022-10-26T19:17:32.250Z,10.27
2022-10-26T19:21:06.452Z,10.19
2022-10-26T19:24:33.761Z,10.13
2022-10-26T19:28:01.679Z,10.09
2022-10-26T19:31:32.567Z,10.07
2022-10-26T19:34:59.340Z,10.07
2022-10-26T19:38:27.128Z,10.08
2022-10-26T19:41:57.653Z,10.07
2022-10-26T19:45:24.789Z,10.09
2022-10-26T19:48:57.461Z,10.10
2022-10-26T19:52:25.083Z,10.10
2022-10-26T19:55:57.714Z,10.15
2022-10-26T19:59:27.481Z,10.18
2022-10-26T20:02:56.507Z,10.21
2022-10-26T20:06:26.836Z,10.23
2022-10-26T20:09:57.302Z,10.24
2022-10-26T20:13:27.335Z,10.23
2022-10-26T20:16:57.683Z,10.15
2022-10-26T20:20:26.375Z,10.16
2022-10-26T20:23:56.341Z,10.13
2022-10-26T20:27:26.398Z,10.14
2022-10-26T20:30:56.991Z,10.14
2022-10-26T20:34:24.631Z,10.16
2022-10-26T20:37:56.803Z,10.21
2022-10-26T20:41:26.001Z,10.26
2022-10-26T20:45:07.221Z,10.33
2022-10-26T20:48:35.744Z,10.39
2022-10-26T20:52:20.849Z,10.46
2022-10-26T20:55:57.117Z,10.53
2022-10-26T20:59:31.671Z,10.60
2022-10-26T21:03:06.587Z,10.66
2022-10-26T21:06:43.809Z,10.69
2022-10-26T21:10:14.861Z,10.73
2022-10-26T21:13:45.057Z,10.75
2022-10-26T21:17:17.460Z,10.76
2022-10-26T21:20:44.811Z,10.77
2022-10-26T21:24:12.765Z,10.75
2022-10-26T21:27:42.188Z,10.74
2022-10-26T21:31:14.358Z,10.74
2022-10-26T21:34:41.225Z,10.74
2022-10-26T21:38:15.674Z,10.76
2022-10-26T21:45:30.804Z,10.83
2022-10-26T21:48:58.141Z,10.87
2022-10-26T21:52:24.915Z,10.93
2022-10-26T21:56:00.289Z,10.97
2022-10-26T21:59:27.118Z,11.02
2022-10-26T22:02:55.413Z,11.06
2022-10-26T22:06:23.166Z,11.11
2022-10-26T22:10:00.673Z,11.13
2022-10-26T22:13:37.760Z,11.12
2022-10-26T22:17:04.637Z,11.11
2022-10-26T22:20:31.625Z,11.08
2022-10-26T22:23:58.612Z,11.05
2022-10-26T22:27:30.546Z,10.99
2022-10-26T22:30:57.497Z,10.94
2022-10-26T22:34:25.708Z,10.87
2022-10-26T22:37:52.722Z,10.83
2022-10-26T22:41:20.484Z,10.79
2022-10-26T22:44:47.391Z,10.74
2022-10-26T22:48:13.936Z,10.72
2022-10-26T22:51:40.681Z,10.71
2022-10-26T22:55:09.994Z,10.72
2022-10-26T22:58:39.213Z,10.74
2022-10-26T23:02:06.461Z,10.76
2022-10-26T23:05:44.829Z,10.77
2022-10-26T23:09:11.922Z,10.78
2022-10-26T23:12:38.913Z,10.77
2022-10-26T23:16:13.594Z,10.78
2022-10-26T23:19:43.209Z,10.77
2022-10-26T23:23:09.867Z,10.75
2022-10-26T23:26:36.881Z,10.71
2022-10-26T23:30:03.775Z,10.68
2022-10-26T23:33:30.884Z,10.64
2022-10-26T23:36:58.282Z,10.61
2022-10-26T23:40:25.186Z,10.59
2022-10-26T23:43:51.893Z,10.58
2022-10-26T23:47:19.098Z,10.58
2022-10-26T23:50:47.319Z,10.60
2022-10-26T23:54:13.989Z,10.61
2022-10-26T23:57:42.060Z,10.65
